sensor_id;sensor_type;location;lat;lon;timestamp;pressure;altitude;pressure_sealevel;temperature;humidity
3132;BME280;62090;52.330;9.104;2023-04-16T00:00:15;101201.09;;;11.56;100.00
3132;BME280;62090;52.330;9.104;2023-04-16T00:02:45;101190.47;;;11.42;100.00
3132;BME280;62090;52.330;9.104;2023-04-16T00:05:18;101219.06;;;11.61;100.00
3132;BME280;62090;52.330;9.104;2023-04-16T00:07:48;101212.16;;;11.57;100.00
3132;BME280;62090;52.330;9.104;2023-04-16T00:10:18;101213.03;;;11.57;100.00
3132;BME280;62090;52.330;9.104;2023-04-16T00:12:48;101219.75;;;11.55;100.00
3132;BME280;62090;52.330;9.104;2023-04-16T00:15:18;101207.06;;;11.57;100.00
3132;BME280;62090;52.330;9.104;2023-04-16T00:17:48;101194.13;;;11.51;100.00
3132;BME280;62090;52.330;9.104;2023-04-16T00:20:21;101175.84;;;11.37;100.00
3132;BME280;62090;52.330;9.104;2023-04-16T00:22:51;101222.97;;;11.48;100.00
3132;BME280;62090;52.330;9.104;2023-04-16T00:25:21;101213.25;;;11.35;100.00
3132;BME280;62090;52.330;9.104;2023-04-16T00:27:50;101222.56;;;11.34;100.00
3132;BME280;62090;52.330;9.104;2023-04-16T00:30:21;101223.34;;;11.32;100.00
3132;BME280;62090;52.330;9.104;2023-04-16T00:32:51;101206.66;;;11.13;100.00
3132;BME280;62090;52.330;9.104;2023-04-16T00:35:23;101217.09;;;11.21;100.00
3132;BME280;62090;52.330;9.104;2023-04-16T00:37:53;101180.56;;;10.93;100.00
3132;BME280;62090;52.330;9.104;2023-04-16T00:40:26;101223.63;;;11.13;100.00
3132;BME280;62090;52.330;9.104;2023-04-16T00:42:55;101226.38;;;11.19;100.00
3132;BME280;62090;52.330;9.104;2023-04-16T00:45:25;101228.66;;;11.69;100.00
3132;BME280;62090;52.330;9.104;2023-04-16T00:47:56;101238.00;;;11.39;100.00
3132;BME280;62090;52.330;9.104;2023-04-16T00:50:29;101218.03;;;11.24;100.00
3132;BME280;62090;52.330;9.104;2023-04-16T00:53:00;101215.38;;;11.21;100.00
3132;BME280;62090;52.330;9.104;2023-04-16T00:55:30;101231.53;;;11.20;100.00
3132;BME280;62090;52.330;9.104;2023-04-16T00:58:00;101225.56;;;11.20;100.00
3132;BME280;62090;52.330;9.104;2023-04-16T01:00:30;101234.03;;;11.19;100.00
3132;BME280;62090;52.330;9.104;2023-04-16T01:02:59;101242.66;;;11.24;100.00
3132;BME280;62090;52.330;9.104;2023-04-16T01:05:32;101226.13;;;11.11;100.00
3132;BME280;62090;52.330;9.104;2023-04-16T01:08:02;101237.19;;;11.12;100.00
3132;BME280;62090;52.330;9.104;2023-04-16T01:10:32;101234.47;;;11.06;100.00
3132;BME280;62090;52.330;9.104;2023-04-16T01:13:02;101250.88;;;11.14;100.00
3132;BME280;62090;52.330;9.104;2023-04-16T01:15:31;101256.72;;;11.10;100.00
3132;BME280;62090;52.330;9.104;2023-04-16T01:18:01;101249.09;;;11.11;100.00
3132;BME280;62090;52.330;9.104;2023-04-16T01:20:36;101255.97;;;11.14;100.00
3132;BME280;62090;52.330;9.104;2023-04-16T01:23:05;101260.88;;;11.08;100.00
3132;BME280;62090;52.330;9.104;2023-04-16T01:25:35;101254.06;;;11.07;100.00
3132;BME280;62090;52.330;9.104;2023-04-16T01:28:06;101269.53;;;11.13;100.00
3132;BME280;62090;52.330;9.104;2023-04-16T01:30:36;101260.69;;;11.01;100.00
3132;BME280;62090;52.330;9.104;2023-04-16T01:33:26;101273.44;;;11.01;100.00
3132;BME280;62090;52.330;9.104;2023-04-16T01:35:58;101281.97;;;11.02;100.00
3132;BME280;62090;52.330;9.104;2023-04-16T01:38:28;101287.13;;;11.04;100.00
3132;BME280;62090;52.330;9.104;2023-04-16T01:40:58;101282.88;;;11.04;100.00
3132;BME280;62090;52.330;9.104;2023-04-16T01:43:28;101286.31;;;11.05;100.00
3132;BME280;62090;52.330;9.104;2023-04-16T01:46:11;101290.53;;;11.04;100.00
3132;BME280;62090;52.330;9.104;2023-04-16T01:48:42;101288.75;;;11.01;100.00
3132;BME280;62090;52.330;9.104;2023-04-16T01:51:14;101286.19;;;11.01;100.00
3132;BME280;62090;52.330;9.104;2023-04-16T01:53:44;101281.00;;;10.98;100.00
3132;BME280;62090;52.330;9.104;2023-04-16T01:56:14;101292.41;;;11.10;100.00
3132;BME280;62090;52.330;9.104;2023-04-16T01:58:44;101283.78;;;11.06;100.00
3132;BME280;62090;52.330;9.104;2023-04-16T02:01:15;101284.72;;;11.08;100.00
3132;BME280;62090;52.330;9.104;2023-04-16T02:03:46;101281.22;;;11.06;100.00
3132;BME280;62090;52.330;9.104;2023-04-16T02:06:19;101269.28;;;11.04;100.00
3132;BME280;62090;52.330;9.104;2023-04-16T02:08:48;101286.47;;;11.11;100.00
3132;BME280;62090;52.330;9.104;2023-04-16T02:11:19;101267.00;;;10.86;100.00
3132;BME280;62090;52.330;9.104;2023-04-16T02:13:50;101286.00;;;10.95;100.00
3132;BME280;62090;52.330;9.104;2023-04-16T02:16:19;101289.94;;;10.86;100.00
3132;BME280;62090;52.330;9.104;2023-04-16T02:18:59;101281.97;;;10.75;100.00
3132;BME280;62090;52.330;9.104;2023-04-16T02:21:35;101293.81;;;10.73;100.00
3132;BME280;62090;52.330;9.104;2023-04-16T02:24:05;101252.00;;;10.43;100.00
3132;BME280;62090;52.330;9.104;2023-04-16T02:26:36;101273.53;;;10.51;100.00
3132;BME280;62090;52.330;9.104;2023-04-16T02:29:11;101289.84;;;10.57;100.00
3132;BME280;62090;52.330;9.104;2023-04-16T02:31:48;101277.97;;;10.58;100.00
3132;BME280;62090;52.330;9.104;2023-04-16T02:34:19;101288.38;;;10.64;100.00
3132;BME280;62090;52.330;9.104;2023-04-16T02:36:51;101288.72;;;10.73;100.00
3132;BME280;62090;52.330;9.104;2023-04-16T02:39:21;101291.19;;;10.72;100.00
3132;BME280;62090;52.330;9.104;2023-04-16T02:41:52;101286.97;;;10.72;100.00
3132;BME280;62090;52.330;9.104;2023-04-16T02:44:22;101277.28;;;10.62;100.00
3132;BME280;62090;52.330;9.104;2023-04-16T02:46:51;101297.97;;;10.71;100.00
3132;BME280;62090;52.330;9.104;2023-04-16T02:49:21;101297.78;;;10.65;100.00
3132;BME280;62090;52.330;9.104;2023-04-16T02:51:54;101303.22;;;10.76;100.00
3132;BME280;62090;52.330;9.104;2023-04-16T02:54:24;101299.66;;;10.71;100.00
3132;BME280;62090;52.330;9.104;2023-04-16T02:56:53;101298.59;;;10.64;100.00
3132;BME280;62090;52.330;9.104;2023-04-16T02:59:23;101306.13;;;10.61;100.00
3132;BME280;62090;52.330;9.104;2023-04-16T03:01:53;101308.56;;;10.58;100.00
3132;BME280;62090;52.330;9.104;2023-04-16T03:04:23;101312.03;;;10.60;100.00
3132;BME280;62090;52.330;9.104;2023-04-16T03:06:55;101300.91;;;10.56;100.00
3132;BME280;62090;52.330;9.104;2023-04-16T03:09:25;101312.09;;;10.62;100.00
3132;BME280;62090;52.330;9.104;2023-04-16T03:11:55;101304.34;;;10.58;100.00
3132;BME280;62090;52.330;9.104;2023-04-16T03:14:25;101293.13;;;10.53;100.00
3132;BME280;62090;52.330;9.104;2023-04-16T03:16:55;101299.09;;;10.54;100.00
3132;BME280;62090;52.330;9.104;2023-04-16T03:19:24;101322.31;;;10.62;100.00
3132;BME280;62090;52.330;9.104;2023-04-16T03:21:57;101317.75;;;10.53;100.00
3132;BME280;62090;52.330;9.104;2023-04-16T03:24:27;101317.28;;;10.39;100.00
3132;BME280;62090;52.330;9.104;2023-04-16T03:26:57;101309.19;;;10.26;100.00
3132;BME280;62090;52.330;9.104;2023-04-16T03:29:28;101305.50;;;10.18;100.00
3132;BME280;62090;52.330;9.104;2023-04-16T03:31:58;101317.97;;;10.11;100.00
3132;BME280;62090;52.330;9.104;2023-04-16T03:34:28;101321.16;;;10.06;100.00
3132;BME280;62090;52.330;9.104;2023-04-16T03:37:00;101320.94;;;10.00;100.00
3132;BME280;62090;52.330;9.104;2023-04-16T03:39:32;101306.22;;;9.91;100.00
3132;BME280;62090;52.330;9.104;2023-04-16T03:42:02;101346.84;;;10.12;100.00
3132;BME280;62090;52.330;9.104;2023-04-16T03:44:33;101339.91;;;10.08;100.00
3132;BME280;62090;52.330;9.104;2023-04-16T03:47:03;101333.91;;;10.06;100.00
3132;BME280;62090;52.330;9.104;2023-04-16T03:49:33;101348.78;;;10.18;100.00
3132;BME280;62090;52.330;9.104;2023-04-16T03:52:06;101349.59;;;10.16;100.00
3132;BME280;62090;52.330;9.104;2023-04-16T03:54:37;101349.59;;;10.16;100.00
3132;BME280;62090;52.330;9.104;2023-04-16T03:57:18;101350.53;;;10.19;100.00
3132;BME280;62090;52.330;9.104;2023-04-16T03:59:47;101345.53;;;10.22;100.00
3132;BME280;62090;52.330;9.104;2023-04-16T04:02:18;101329.66;;;10.06;100.00
3132;BME280;62090;52.330;9.104;2023-04-16T04:04:48;101353.16;;;10.22;100.00
3132;BME280;62090;52.330;9.104;2023-04-16T04:07:20;101351.72;;;10.28;100.00
3132;BME280;62090;52.330;9.104;2023-04-16T04:09:51;101349.81;;;10.23;100.00
3132;BME280;62090;52.330;9.104;2023-04-16T04:12:21;101334.94;;;10.11;100.00
3132;BME280;62090;52.330;9.104;2023-04-16T04:14:50;101353.75;;;10.14;100.00
3132;BME280;62090;52.330;9.104;2023-04-16T04:17:20;101361.88;;;10.04;100.00
3132;BME280;62090;52.330;9.104;2023-04-16T04:19:50;101341.75;;;9.88;100.00
3132;BME280;62090;52.330;9.104;2023-04-16T04:22:28;101365.81;;;9.96;100.00
3132;BME280;62090;52.330;9.104;2023-04-16T04:24:58;101340.97;;;9.67;100.00
3132;BME280;62090;52.330;9.104;2023-04-16T04:27:30;101371.38;;;9.86;100.00
3132;BME280;62090;52.330;9.104;2023-04-16T04:30:01;101366.09;;;9.82;100.00
3132;BME280;62090;52.330;9.104;2023-04-16T04:32:32;101372.31;;;9.88;100.00
3132;BME280;62090;52.330;9.104;2023-04-16T04:35:02;101339.22;;;9.66;100.00
3132;BME280;62090;52.330;9.104;2023-04-16T04:37:35;101374.00;;;9.89;100.00
3132;BME280;62090;52.330;9.104;2023-04-16T04:40:12;101386.09;;;9.95;100.00
3132;BME280;62090;52.330;9.104;2023-04-16T04:42:42;101384.19;;;9.89;100.00
3132;BME280;62090;52.330;9.104;2023-04-16T04:45:12;101334.69;;;9.59;100.00
3132;BME280;62090;52.330;9.104;2023-04-16T04:47:42;101376.06;;;9.75;100.00
3132;BME280;62090;52.330;9.104;2023-04-16T04:50:11;101385.66;;;9.83;100.00
3132;BME280;62090;52.330;9.104;2023-04-16T04:52:44;101393.22;;;9.81;100.00
3132;BME280;62090;52.330;9.104;2023-04-16T04:55:14;101400.78;;;9.78;100.00
3132;BME280;62090;52.330;9.104;2023-04-16T04:57:43;101385.13;;;9.69;100.00
3132;BME280;62090;52.330;9.104;2023-04-16T05:00:13;101395.44;;;9.72;100.00
3132;BME280;62090;52.330;9.104;2023-04-16T05:02:50;101404.28;;;9.82;100.00
3132;BME280;62090;52.330;9.104;2023-04-16T05:05:21;101392.69;;;9.90;100.00
3132;BME280;62090;52.330;9.104;2023-04-16T05:07:53;101410.00;;;9.98;100.00
3132;BME280;62090;52.330;9.104;2023-04-16T05:10:23;101411.38;;;9.90;100.00
3132;BME280;62090;52.330;9.104;2023-04-16T05:12:53;101362.69;;;9.59;100.00
3132;BME280;62090;52.330;9.104;2023-04-16T05:15:22;101416.38;;;9.87;100.00
3132;BME280;62090;52.330;9.104;2023-04-16T05:17:52;101408.41;;;9.78;100.00
3132;BME280;62090;52.330;9.104;2023-04-16T05:20:22;101411.69;;;9.75;100.00
3132;BME280;62090;52.330;9.104;2023-04-16T05:22:55;101419.31;;;9.75;100.00
3132;BME280;62090;52.330;9.104;2023-04-16T05:25:24;101423.53;;;9.75;100.00
3132;BME280;62090;52.330;9.104;2023-04-16T05:27:54;101438.75;;;9.73;100.00
3132;BME280;62090;52.330;9.104;2023-04-16T05:30:24;101421.09;;;9.56;100.00
3132;BME280;62090;52.330;9.104;2023-04-16T05:32:54;101437.03;;;9.72;100.00
3132;BME280;62090;52.330;9.104;2023-04-16T05:35:23;101446.38;;;9.73;100.00
3132;BME280;62090;52.330;9.104;2023-04-16T05:37:56;101425.84;;;9.69;100.00
3132;BME280;62090;52.330;9.104;2023-04-16T05:40:25;101436.03;;;9.69;100.00
3132;BME280;62090;52.330;9.104;2023-04-16T05:42:55;101457.41;;;9.72;100.00
3132;BME280;62090;52.330;9.104;2023-04-16T05:45:25;101444.91;;;9.58;100.00
3132;BME280;62090;52.330;9.104;2023-04-16T05:47:55;101447.78;;;9.65;100.00
3132;BME280;62090;52.330;9.104;2023-04-16T05:50:25;101448.28;;;9.57;100.00
3132;BME280;62090;52.330;9.104;2023-04-16T05:52:57;101456.28;;;9.66;100.00
3132;BME280;62090;52.330;9.104;2023-04-16T05:55:27;101448.47;;;9.61;100.00
3132;BME280;62090;52.330;9.104;2023-04-16T05:57:57;101466.28;;;9.61;100.00
3132;BME280;62090;52.330;9.104;2023-04-16T06:00:26;101466.31;;;9.63;100.00
3132;BME280;62090;52.330;9.104;2023-04-16T06:02:56;101464.72;;;9.65;100.00
3132;BME280;62090;52.330;9.104;2023-04-16T06:05:27;101439.03;;;9.59;100.00
3132;BME280;62090;52.330;9.104;2023-04-16T06:08:00;101469.09;;;9.69;100.00
3132;BME280;62090;52.330;9.104;2023-04-16T06:10:30;101468.13;;;9.65;100.00
3132;BME280;62090;52.330;9.104;2023-04-16T06:12:59;101470.66;;;9.65;100.00
3132;BME280;62090;52.330;9.104;2023-04-16T06:15:29;101467.50;;;9.71;100.00
3132;BME280;62090;52.330;9.104;2023-04-16T06:17:59;101440.78;;;9.39;100.00
3132;BME280;62090;52.330;9.104;2023-04-16T06:20:29;101440.63;;;9.36;100.00
3132;BME280;62090;52.330;9.104;2023-04-16T06:23:01;101484.53;;;9.51;100.00
3132;BME280;62090;52.330;9.104;2023-04-16T06:25:31;101481.84;;;9.48;100.00
3132;BME280;62090;52.330;9.104;2023-04-16T06:28:01;101473.66;;;9.55;100.00
3132;BME280;62090;52.330;9.104;2023-04-16T06:30:31;101461.84;;;9.57;100.00
3132;BME280;62090;52.330;9.104;2023-04-16T06:33:00;101480.47;;;9.77;100.00
3132;BME280;62090;52.330;9.104;2023-04-16T06:35:30;101480.25;;;9.93;100.00
3132;BME280;62090;52.330;9.104;2023-04-16T06:38:03;101481.22;;;10.18;100.00
3132;BME280;62090;52.330;9.104;2023-04-16T06:40:32;101464.75;;;10.32;100.00
3132;BME280;62090;52.330;9.104;2023-04-16T06:43:03;101481.78;;;10.55;100.00
3132;BME280;62090;52.330;9.104;2023-04-16T06:45:33;101468.88;;;10.50;100.00
3132;BME280;62090;52.330;9.104;2023-04-16T06:48:04;101477.13;;;10.67;100.00
3132;BME280;62090;52.330;9.104;2023-04-16T06:50:33;101466.47;;;10.79;100.00
3132;BME280;62090;52.330;9.104;2023-04-16T06:53:06;101466.16;;;10.93;99.79
3132;BME280;62090;52.330;9.104;2023-04-16T06:55:36;101481.44;;;10.93;99.07
3132;BME280;62090;52.330;9.104;2023-04-16T06:58:06;101485.19;;;10.79;98.24
3132;BME280;62090;52.330;9.104;2023-04-16T07:00:36;101464.91;;;10.58;99.95
3132;BME280;62090;52.330;9.104;2023-04-16T07:03:05;101489.84;;;10.91;99.56
3132;BME280;62090;52.330;9.104;2023-04-16T07:05:35;101490.22;;;11.01;98.40
3132;BME280;62090;52.330;9.104;2023-04-16T07:08:08;101494.78;;;11.10;99.23
3132;BME280;62090;52.330;9.104;2023-04-16T07:10:38;101468.25;;;10.81;97.72
3132;BME280;62090;52.330;9.104;2023-04-16T07:13:08;101501.09;;;10.72;98.38
3132;BME280;62090;52.330;9.104;2023-04-16T07:15:38;101504.44;;;10.71;99.26
3132;BME280;62090;52.330;9.104;2023-04-16T07:18:08;101494.47;;;10.77;99.62
3132;BME280;62090;52.330;9.104;2023-04-16T07:20:38;101504.69;;;10.77;100.00
3132;BME280;62090;52.330;9.104;2023-04-16T07:23:11;101479.69;;;10.69;100.00
3132;BME280;62090;52.330;9.104;2023-04-16T07:25:41;101502.94;;;10.76;100.00
3132;BME280;62090;52.330;9.104;2023-04-16T07:28:11;101487.75;;;10.55;100.00
3132;BME280;62090;52.330;9.104;2023-04-16T07:30:42;101491.25;;;10.59;100.00
3132;BME280;62090;52.330;9.104;2023-04-16T07:33:12;101448.66;;;10.33;100.00
3132;BME280;62090;52.330;9.104;2023-04-16T07:35:41;101488.47;;;10.53;100.00
3132;BME280;62090;52.330;9.104;2023-04-16T07:38:14;101468.53;;;10.41;100.00
3132;BME280;62090;52.330;9.104;2023-04-16T07:40:44;101515.22;;;10.64;100.00
3132;BME280;62090;52.330;9.104;2023-04-16T07:43:14;101496.97;;;10.52;100.00
3132;BME280;62090;52.330;9.104;2023-04-16T07:45:44;101506.84;;;10.67;100.00
3132;BME280;62090;52.330;9.104;2023-04-16T07:48:14;101500.44;;;10.78;100.00
3132;BME280;62090;52.330;9.104;2023-04-16T07:50:44;101514.59;;;10.93;100.00
3132;BME280;62090;52.330;9.104;2023-04-16T07:53:16;101520.72;;;10.98;99.97
3132;BME280;62090;52.330;9.104;2023-04-16T07:55:46;101499.16;;;10.89;99.61
3132;BME280;62090;52.330;9.104;2023-04-16T07:58:16;101521.19;;;11.12;100.00
3132;BME280;62090;52.330;9.104;2023-04-16T08:00:45;101500.53;;;11.05;100.00
3132;BME280;62090;52.330;9.104;2023-04-16T08:03:16;101519.59;;;11.16;98.51
3132;BME280;62090;52.330;9.104;2023-04-16T08:05:46;101506.97;;;10.95;98.99
3132;BME280;62090;52.330;9.104;2023-04-16T08:08:19;101523.00;;;10.91;97.90
3132;BME280;62090;52.330;9.104;2023-04-16T08:10:48;101528.00;;;10.88;97.70
3132;BME280;62090;52.330;9.104;2023-04-16T08:13:21;101519.63;;;10.68;97.50
3132;BME280;62090;52.330;9.104;2023-04-16T08:15:51;101545.47;;;10.77;97.68
3132;BME280;62090;52.330;9.104;2023-04-16T08:18:21;101518.81;;;10.69;98.80
3132;BME280;62090;52.330;9.104;2023-04-16T08:20:51;101526.81;;;10.78;98.75
3132;BME280;62090;52.330;9.104;2023-04-16T08:23:23;101544.72;;;11.04;98.60
3132;BME280;62090;52.330;9.104;2023-04-16T08:25:53;101549.66;;;10.99;97.76
3132;BME280;62090;52.330;9.104;2023-04-16T08:28:23;101549.38;;;10.91;97.51
3132;BME280;62090;52.330;9.104;2023-04-16T08:30:53;101533.44;;;10.73;98.17
3132;BME280;62090;52.330;9.104;2023-04-16T08:33:22;101558.06;;;10.96;98.39
3132;BME280;62090;52.330;9.104;2023-04-16T08:35:52;101535.50;;;10.83;98.60
3132;BME280;62090;52.330;9.104;2023-04-16T08:38:25;101568.03;;;11.14;96.94
3132;BME280;62090;52.330;9.104;2023-04-16T08:40:55;101568.38;;;10.99;95.80
3132;BME280;62090;52.330;9.104;2023-04-16T08:43:27;101557.41;;;11.02;97.31
3132;BME280;62090;52.330;9.104;2023-04-16T08:46:00;101576.88;;;11.24;97.14
3132;BME280;62090;52.330;9.104;2023-04-16T08:48:32;101537.88;;;11.02;95.96
3132;BME280;62090;52.330;9.104;2023-04-16T08:51:05;101582.91;;;11.26;95.97
3132;BME280;62090;52.330;9.104;2023-04-16T08:53:48;101520.50;;;10.92;95.48
3132;BME280;62090;52.330;9.104;2023-04-16T08:56:22;101588.88;;;11.26;96.22
3132;BME280;62090;52.330;9.104;2023-04-16T08:58:53;101581.28;;;11.28;96.05
3132;BME280;62090;52.330;9.104;2023-04-16T09:01:24;101587.66;;;11.15;94.85
3132;BME280;62090;52.330;9.104;2023-04-16T09:03:55;101575.69;;;10.90;95.79
3132;BME280;62090;52.330;9.104;2023-04-16T09:06:27;101585.06;;;10.91;96.98
3132;BME280;62090;52.330;9.104;2023-04-16T09:09:00;101588.78;;;10.99;97.50
3132;BME280;62090;52.330;9.104;2023-04-16T09:11:31;101594.47;;;10.92;96.83
3132;BME280;62090;52.330;9.104;2023-04-16T09:14:01;101595.16;;;10.88;96.87
3132;BME280;62090;52.330;9.104;2023-04-16T09:16:32;101580.50;;;10.83;97.13
3132;BME280;62090;52.330;9.104;2023-04-16T09:19:02;101602.84;;;10.90;96.96
3132;BME280;62090;52.330;9.104;2023-04-16T09:21:33;101577.84;;;10.80;96.63
3132;BME280;62090;52.330;9.104;2023-04-16T09:24:07;101597.97;;;10.96;96.33
3132;BME280;62090;52.330;9.104;2023-04-16T09:26:36;101581.94;;;10.98;96.32
3132;BME280;62090;52.330;9.104;2023-04-16T09:29:07;101590.63;;;11.04;96.23
3132;BME280;62090;52.330;9.104;2023-04-16T09:31:37;101602.34;;;11.22;96.61
3132;BME280;62090;52.330;9.104;2023-04-16T09:34:07;101604.66;;;11.40;95.55
3132;BME280;62090;52.330;9.104;2023-04-16T09:36:37;101591.78;;;11.37;93.55
3132;BME280;62090;52.330;9.104;2023-04-16T09:39:17;101614.16;;;11.44;93.09
3132;BME280;62090;52.330;9.104;2023-04-16T09:41:47;101601.25;;;11.39;93.53
3132;BME280;62090;52.330;9.104;2023-04-16T09:44:18;101608.41;;;11.50;92.49
3132;BME280;62090;52.330;9.104;2023-04-16T09:46:48;101616.88;;;11.49;92.90
3132;BME280;62090;52.330;9.104;2023-04-16T09:49:17;101603.16;;;11.45;92.40
3132;BME280;62090;52.330;9.104;2023-04-16T09:51:47;101613.78;;;11.57;93.42
3132;BME280;62090;52.330;9.104;2023-04-16T09:54:24;101613.00;;;11.60;92.95
3132;BME280;62090;52.330;9.104;2023-04-16T09:56:55;101608.41;;;11.50;91.96
3132;BME280;62090;52.330;9.104;2023-04-16T09:59:26;101605.91;;;11.51;92.10
3132;BME280;62090;52.330;9.104;2023-04-16T10:01:59;101600.81;;;11.51;91.81
3132;BME280;62090;52.330;9.104;2023-04-16T10:04:48;101593.53;;;11.63;92.30
3132;BME280;62090;52.330;9.104;2023-04-16T10:07:19;101615.13;;;11.71;91.46
3132;BME280;62090;52.330;9.104;2023-04-16T10:09:51;101632.50;;;11.81;91.58
3132;BME280;62090;52.330;9.104;2023-04-16T10:12:21;101628.13;;;11.77;92.31
3132;BME280;62090;52.330;9.104;2023-04-16T10:14:51;101612.94;;;11.58;92.16
3132;BME280;62090;52.330;9.104;2023-04-16T10:17:21;101634.66;;;11.71;92.37
3132;BME280;62090;52.330;9.104;2023-04-16T10:19:53;101585.88;;;11.38;92.29
3132;BME280;62090;52.330;9.104;2023-04-16T10:22:23;101624.19;;;11.63;91.85
3132;BME280;62090;52.330;9.104;2023-04-16T10:24:55;101636.13;;;11.64;91.73
3132;BME280;62090;52.330;9.104;2023-04-16T10:27:26;101635.78;;;11.77;92.45
3132;BME280;62090;52.330;9.104;2023-04-16T10:29:57;101644.34;;;11.79;92.06
3132;BME280;62090;52.330;9.104;2023-04-16T10:32:27;101642.31;;;11.71;91.82
3132;BME280;62090;52.330;9.104;2023-04-16T10:34:57;101627.28;;;11.55;92.38
3132;BME280;62090;52.330;9.104;2023-04-16T10:37:30;101646.13;;;11.58;91.78
3132;BME280;62090;52.330;9.104;2023-04-16T10:40:21;101631.44;;;11.51;92.88
3132;BME280;62090;52.330;9.104;2023-04-16T10:42:55;101634.44;;;11.65;93.47
3132;BME280;62090;52.330;9.104;2023-04-16T10:45:31;101646.22;;;11.83;92.31
3132;BME280;62090;52.330;9.104;2023-04-16T10:48:06;101648.69;;;11.82;92.76
3132;BME280;62090;52.330;9.104;2023-04-16T10:50:41;101647.84;;;11.81;93.22
3132;BME280;62090;52.330;9.104;2023-04-16T10:53:19;101652.28;;;11.87;91.97
3132;BME280;62090;52.330;9.104;2023-04-16T10:56:09;101651.66;;;11.70;91.56
3132;BME280;62090;52.330;9.104;2023-04-16T10:58:44;101635.66;;;11.74;92.59
3132;BME280;62090;52.330;9.104;2023-04-16T11:01:15;101642.50;;;11.75;91.95
3132;BME280;62090;52.330;9.104;2023-04-16T11:03:47;101651.25;;;11.82;92.98
3132;BME280;62090;52.330;9.104;2023-04-16T11:06:23;101660.75;;;11.86;93.01
3132;BME280;62090;52.330;9.104;2023-04-16T11:08:56;101624.03;;;11.59;93.62
3132;BME280;62090;52.330;9.104;2023-04-16T11:11:36;101652.66;;;11.74;93.99
3132;BME280;62090;52.330;9.104;2023-04-16T11:14:10;101630.38;;;11.70;94.59
3132;BME280;62090;52.330;9.104;2023-04-16T11:16:41;101656.81;;;11.96;94.76
3132;BME280;62090;52.330;9.104;2023-04-16T11:19:15;101658.69;;;12.00;94.22
3132;BME280;62090;52.330;9.104;2023-04-16T11:21:46;101658.69;;;12.00;94.01
3132;BME280;62090;52.330;9.104;2023-04-16T11:24:17;101657.75;;;11.98;94.05
3132;BME280;62090;52.330;9.104;2023-04-16T11:26:53;101669.19;;;12.09;94.04
3132;BME280;62090;52.330;9.104;2023-04-16T11:29:24;101670.78;;;12.05;93.72
3132;BME280;62090;52.330;9.104;2023-04-16T11:31:55;101655.03;;;11.93;93.00
3132;BME280;62090;52.330;9.104;2023-04-16T11:34:26;101627.50;;;11.84;93.99
3132;BME280;62090;52.330;9.104;2023-04-16T11:36:56;101652.91;;;12.05;93.66
3132;BME280;62090;52.330;9.104;2023-04-16T11:39:27;101648.53;;;12.03;92.02
3132;BME280;62090;52.330;9.104;2023-04-16T11:42:03;101662.13;;;12.02;92.27
3132;BME280;62090;52.330;9.104;2023-04-16T11:44:34;101654.47;;;12.02;92.83
3132;BME280;62090;52.330;9.104;2023-04-16T11:47:04;101663.13;;;12.05;93.23
3132;BME280;62090;52.330;9.104;2023-04-16T11:49:38;101662.03;;;11.99;92.87
3132;BME280;62090;52.330;9.104;2023-04-16T11:52:09;101668.31;;;12.08;91.90
3132;BME280;62090;52.330;9.104;2023-04-16T11:54:40;101656.06;;;11.98;92.72
3132;BME280;62090;52.330;9.104;2023-04-16T11:57:13;101665.03;;;12.12;92.17
3132;BME280;62090;52.330;9.104;2023-04-16T11:59:45;101670.28;;;12.15;92.25
3132;BME280;62090;52.330;9.104;2023-04-16T12:02:42;101653.94;;;12.12;91.99
3132;BME280;62090;52.330;9.104;2023-04-16T12:05:26;101659.47;;;12.24;92.23
3132;BME280;62090;52.330;9.104;2023-04-16T12:07:58;101661.09;;;12.22;91.53
3132;BME280;62090;52.330;9.104;2023-04-16T12:10:31;101664.78;;;12.30;91.89
3132;BME280;62090;52.330;9.104;2023-04-16T12:13:14;101680.84;;;12.53;91.22
3132;BME280;62090;52.330;9.104;2023-04-16T12:15:46;101664.72;;;12.55;90.73
3132;BME280;62090;52.330;9.104;2023-04-16T12:18:20;101661.34;;;12.56;89.94
3132;BME280;62090;52.330;9.104;2023-04-16T12:20:53;101669.50;;;12.72;89.39
3132;BME280;62090;52.330;9.104;2023-04-16T12:23:25;101685.91;;;12.78;90.20
3132;BME280;62090;52.330;9.104;2023-04-16T12:25:56;101665.31;;;12.74;89.68
3132;BME280;62090;52.330;9.104;2023-04-16T12:28:35;101680.66;;;12.75;89.82
3132;BME280;62090;52.330;9.104;2023-04-16T12:31:15;101637.13;;;12.45;90.43
3132;BME280;62090;52.330;9.104;2023-04-16T12:34:00;101673.44;;;12.89;90.25
3132;BME280;62090;52.330;9.104;2023-04-16T12:36:32;101653.03;;;12.92;89.90
3132;BME280;62090;52.330;9.104;2023-04-16T12:39:03;101677.44;;;13.09;89.28
3132;BME280;62090;52.330;9.104;2023-04-16T12:41:36;101675.81;;;13.11;88.57
3132;BME280;62090;52.330;9.104;2023-04-16T12:44:11;101641.88;;;12.88;88.08
3132;BME280;62090;52.330;9.104;2023-04-16T12:46:45;101677.34;;;13.06;89.09
3132;BME280;62090;52.330;9.104;2023-04-16T12:49:16;101677.44;;;13.09;88.21
3132;BME280;62090;52.330;9.104;2023-04-16T12:51:48;101674.50;;;12.97;88.28
3132;BME280;62090;52.330;9.104;2023-04-16T12:54:19;101665.09;;;12.96;88.90
3132;BME280;62090;52.330;9.104;2023-04-16T12:56:50;101670.41;;;13.02;87.40
3132;BME280;62090;52.330;9.104;2023-04-16T12:59:24;101676.38;;;13.02;86.98
3132;BME280;62090;52.330;9.104;2023-04-16T13:01:55;101676.56;;;13.08;87.19
3132;BME280;62090;52.330;9.104;2023-04-16T13:04:27;101671.09;;;13.25;86.41
3132;BME280;62090;52.330;9.104;2023-04-16T13:06:57;101669.66;;;13.34;85.26
3132;BME280;62090;52.330;9.104;2023-04-16T13:09:27;101657.78;;;13.36;85.47
3132;BME280;62090;52.330;9.104;2023-04-16T13:11:56;101669.84;;;13.40;85.61
3132;BME280;62090;52.330;9.104;2023-04-16T13:14:29;101650.75;;;13.29;84.70
3132;BME280;62090;52.330;9.104;2023-04-16T13:16:58;101671.41;;;13.35;85.13